Spring Mountain Youth Camp, Nevada Weather observations

Data are for 60 minute period ending at time listed.
 Day   Time   Solar   Ave.   Ave.  Ave.  Vector  Max.   Baro.   Total    
  of    of     Rad.   Air    Rel.  Wind   Wind   Wind  Press.  Precip.   
Year   Day            Temp.  Hum.  Speed  Dir.   Gust                    
2014   (PST)  Kw/m2    F      %     mph   deg.    mph    mb.     in.     
-------------------------------------------------------------------------
 205    6:00   0.03   67.3    15   13.8   165    26.0   795.2    0.00 
 205    7:00   0.29   70.6    14   15.6   171    26.4   795.2    0.00 
 205    8:00   0.28   73.8    13   11.6   172    27.8   795.4    0.00 
 205    9:00   0.54   76.8    12    7.4   172    22.1   795.3    0.00 
 205   10:00   0.84   77.5    13   10.0   158    24.5   795.2    0.00 
 205   11:00   0.95   78.5    12   10.0   149    21.9   795.1    0.00 
 205   12:00   1.00   79.9    12    4.2     3    14.8   794.9    0.00 
 205   13:00   1.01   81.3    12    5.9   170    20.2   794.8    0.00 
 205   14:00   0.96   80.8    12   11.2   167    24.0   794.5    0.00 
 205   15:00   0.84   81.2    12   10.7   178    21.5   794.1    0.00 
 205   16:00   0.67   79.2    13   13.2   168    22.1   793.7    0.00 
 205   17:00   0.47   77.1    14   12.7   171    25.5   793.6    0.00 
 205   18:00   0.25   74.5    15   11.3   168    20.6   793.7    0.00 
 205   19:00   0.03   70.9    16    9.6   170    20.1   794.0    0.00 
 205   20:00   0.00   69.6    16   12.1   167    22.0   794.2    0.00 
 205   21:00   0.00   69.1    16   14.1   172    25.2   794.3    0.00 
 205   22:00   0.00   69.1    18   12.9   174    26.9   794.4    0.00 
 205   23:00   0.00   69.2    19   14.2   177    29.7   794.5    0.00 
 206    0:00   0.00   68.1    20   12.3   168    27.8   794.5    0.00 
 206    1:00   0.00   66.3    22    8.6   161    16.7   794.4    0.00 
 206    2:00   0.00   66.1    21   10.0   172    26.0   794.1    0.00 
 206    3:00   0.00   67.4    27   13.2   180    27.9   794.0    0.00 
 206    4:00   0.00   66.2    32    5.6   164    24.2   794.2    0.00 
 206    5:00   0.00   65.3    35    7.0   166    21.5   794.4    0.00 

Return to Spring Mountain Youth Camp graphs page.


Western Regional Climate Center,wrcc@dri.edu